Etusivu
METAR-TAF:

METAR-TAF

Lentoasemat :

Irkutsk, Venäjä

Irkutskin lentoasema

Leveyspiiri: 52-16N, Pituuspiiri: 104-19E, korkeus merenpinnasta: 513 m

Tämänhetkinen sää

Tämä raportti tehtiin 40 minuuttia sitten, kello 10.30 UTC
Tuuli 14 kn etelästä
Lämpötila 18°C
Kosteus 30%
Ilmanpaine 1007 hPa
Näkyvyys 10 km tai enemmän
ei pilviä alle 1500 m:ssä eikä cumulonimbus-pilviä

METAR: UIII 301030Z 17007MPS CAVOK 18/00 Q1007 R12/60D NOSIG RMK QFE713/0951

Aika: 19:10 (11:10 UTC)

Sääennuste

Tämä raportti tehtiin 3 tuntia ja 10 minuuttia sitten, kello 08.00 UTC
Ennuste voimassa 30. päivästä klo 09 UTC - 31. päivään klo 09 UTC
Tuuli 10 kn etelästä/kaakosta
Näkyvyys 10 km tai enemmän
ei pilviä alle 1500 m:ssä eikä cumulonimbus-pilviä

TAF: UIII 300800Z 3009/3109 16005MPS CAVOK

Säähavainnot ja -ennusteet yli 4000 lentoasemalta (METAR- ja TAF-raportit).

Käytössä olevat sääasemat on merkitty karttaan keltaisilla ja punaisilla pisteillä.

Aseta hiiri pisteen päälle nähdäksesi sääaseman nimen.

Klikkaa sitten nähdäksesi säähavainnot ja -ennusteet.

Kartan vaihtaminen: klikkaa mustalla rastilla varustettuja vihreitä pisteitä, niin voit zoomata sisään; viivalla varustettua vihreää pistettä, niin voit zoomata ulos tai vihreitä nuolia, niin pääset viereisille kartoille.


METAR-TAF: